Time;durP1;ratioP1;P1;durP2;ratioP2;P2;SDS_P1;SDS_P2;PMS_P1;PMS_P2;Temp;Humidity;BMP_temperature;BMP_pressure;BME280_temperature;BME280_humidity;BME280_pressure;Samples;Min_cycle;Max_cycle;Signal;HPM_P1;HPM_P2
2022/08/14 00:01:55;;;;;;;11.38;9.57;;;;;;;;;;5037471;28;20028;-62
2022/08/14 00:04:21;;;;;;;9.68;8.65;;;;;;;;;;5037738;28;20421;-62
2022/08/14 00:06:47;;;;;;;10.75;9.65;;;;;;;;;;5036525;28;20540;-63
2022/08/14 00:09:12;;;;;;;11.65;9.68;;;;;;;;;;5037408;28;20107;-62
2022/08/14 00:11:37;;;;;;;10.57;8.88;;;;;;;;;;5037699;28;20121;-62
2022/08/14 00:14:03;;;;;;;10.07;8.93;;;;;;;;;;5037326;28;20025;-62
2022/08/14 00:16:28;;;;;;;11.63;9.48;;;;;;;;;;5069254;28;20095;-62
2022/08/14 00:18:54;;;;;;;9.93;8.93;;;;;;;;;;5037620;28;20470;-62
2022/08/14 00:21:20;;;;;;;9.82;8.82;;;;;;;;;;5037099;28;20441;-63
2022/08/14 00:23:45;;;;;;;10.60;9.25;;;;;;;;;;5037670;28;20075;-62
2022/08/14 00:26:10;;;;;;;11.05;9.95;;;;;;;;;;5037611;28;20029;-62
2022/08/14 00:28:36;;;;;;;10.30;9.20;;;;;;;;;;5037599;28;20067;-62
2022/08/14 00:31:02;;;;;;;9.57;8.68;;;;;;;;;;5036996;28;20056;-62
2022/08/14 00:33:28;;;;;;;9.55;8.63;;;;;;;;;;5036934;28;20026;-62
2022/08/14 00:35:54;;;;;;;11.80;9.05;;;;;;;;;;5036862;28;20082;-62
2022/08/14 00:38:20;;;;;;;10.65;9.48;;;;;;;;;;5037083;28;20104;-62
2022/08/14 00:40:45;;;;;;;11.18;9.20;;;;;;;;;;5036634;28;20026;-62
2022/08/14 00:43:11;;;;;;;10.10;9.20;;;;;;;;;;5036739;28;20018;-62
2022/08/14 00:45:37;;;;;;;10.10;8.95;;;;;;;;;;5036958;28;20033;-62
2022/08/14 00:48:03;;;;;;;11.32;9.32;;;;;;;;;;5036995;28;20096;-62
2022/08/14 00:50:31;;;;;;;9.95;8.93;;;;;;;;;;5036882;28;20034;-62
2022/08/14 00:52:58;;;;;;;10.07;9.07;;;;;;;;;;5036353;28;20133;-62
2022/08/14 00:55:26;;;;;;;10.68;8.80;;;;;;;;;;5035408;28;20037;-62
2022/08/14 01:00:35;;;;;;;12.00;9.07;;;;;;;;;;5036938;28;20104;-62
2022/08/14 01:03:02;;;;;;;11.43;9.52;;;;;;;;;;5036406;28;20541;-63
2022/08/14 01:05:28;;;;;;;9.57;8.57;;;;;;;;;;5035744;28;20033;-62
2022/08/14 01:07:56;;;;;;;10.45;9.45;;;;;;;;;;5036614;28;20026;-63
2022/08/14 01:10:49;;;;;;;10.48;9.40;;;;;;;;;;5036519;28;20037;-62
2022/08/14 01:13:08;;;;;;;11.50;9.35;;;;;;;;;;5036149;28;20029;-62
2022/08/14 01:15:34;;;;;;;11.35;9.88;;;;;;;;;;5036195;28;20079;-62
2022/08/14 01:23:27;;;;;;;10.30;9.20;;;;;;;;;;5036294;28;20473;-62
2022/08/14 01:25:53;;;;;;;11.23;9.98;;;;;;;;;;5035960;28;20028;-63
2022/08/14 01:28:20;;;;;;;10.95;9.63;;;;;;;;;;5035975;28;20025;-63
2022/08/14 01:30:46;;;;;;;10.85;9.85;;;;;;;;;;5035295;28;20025;-62
2022/08/14 01:33:11;;;;;;;11.50;10.40;;;;;;;;;;5035879;28;20117;-62
2022/08/14 01:35:45;;;;;;;12.30;9.35;;;;;;;;;;5035100;28;20465;-62
2022/08/14 01:38:14;;;;;;;12.13;10.43;;;;;;;;;;5036225;28;20513;-62
2022/08/14 01:40:40;;;;;;;11.48;10.35;;;;;;;;;;5036005;28;20071;-62
2022/08/14 01:43:14;;;;;;;11.35;10.23;;;;;;;;;;5035914;28;20021;-62
2022/08/14 01:45:40;;;;;;;12.82;11.50;;;;;;;;;;5034372;28;20025;-62
2022/08/14 01:48:05;;;;;;;12.50;11.20;;;;;;;;;;5035591;28;20436;-63
2022/08/14 01:50:31;;;;;;;13.27;11.90;;;;;;;;;;5035515;28;20038;-62
2022/08/14 01:52:56;;;;;;;12.13;10.82;;;;;;;;;;5035338;28;20049;-62
2022/08/14 01:55:23;;;;;;;12.55;11.05;;;;;;;;;;5035950;28;20021;-62
2022/08/14 01:57:49;;;;;;;12.38;11.07;;;;;;;;;;5034148;28;20013;-62
2022/08/14 02:00:15;;;;;;;16.70;11.98;;;;;;;;;;5035651;28;20520;-62
2022/08/14 02:02:41;;;;;;;12.65;11.32;;;;;;;;;;5035579;28;20421;-62
2022/08/14 02:05:10;;;;;;;14.40;11.20;;;;;;;;;;5035224;28;20049;-62
2022/08/14 02:07:35;;;;;;;14.93;12.15;;;;;;;;;;5035761;28;20408;-62
2022/08/14 02:10:01;;;;;;;17.23;12.75;;;;;;;;;;5035188;28;20029;-62
2022/08/14 02:12:27;;;;;;;15.88;13.65;;;;;;;;;;5035348;28;20029;-62
2022/08/14 02:14:52;;;;;;;16.60;12.45;;;;;;;;;;5035349;28;20025;-62
2022/08/14 02:17:21;;;;;;;15.98;12.90;;;;;;;;;;5034975;28;20385;-62
2022/08/14 02:19:49;;;;;;;15.02;12.60;;;;;;;;;;5035485;28;20095;-62
2022/08/14 02:22:17;;;;;;;14.05;11.57;;;;;;;;;;5035251;28;20097;-62
2022/08/14 02:24:43;;;;;;;14.18;10.95;;;;;;;;;;5033613;28;20049;-62
2022/08/14 02:27:10;;;;;;;14.05;12.25;;;;;;;;;;5034841;28;20021;-62
2022/08/14 02:29:35;;;;;;;15.38;13.02;;;;;;;;;;5035089;28;20029;-62
2022/08/14 02:32:01;;;;;;;14.50;12.65;;;;;;;;;;5034999;28;20022;-62
2022/08/14 02:34:28;;;;;;;14.18;12.15;;;;;;;;;;5033416;28;20488;-62
2022/08/14 02:37:04;;;;;;;14.25;12.27;;;;;;;;;;5034939;28;20014;-62
2022/08/14 02:39:30;;;;;;;15.52;11.70;;;;;;;;;;5034747;28;20029;-62
2022/08/14 02:41:56;;;;;;;12.25;10.95;;;;;;;;;;5034850;28;20425;-63
2022/08/14 02:44:22;;;;;;;12.73;10.80;;;;;;;;;;5035055;28;20116;-63
2022/08/14 02:46:48;;;;;;;12.32;10.85;;;;;;;;;;5035000;28;20104;-62
2022/08/14 02:49:13;;;;;;;12.27;10.75;;;;;;;;;;5034714;28;20041;-63
2022/08/14 02:51:40;;;;;;;12.43;10.73;;;;;;;;;;5032535;28;20128;-63
2022/08/14 02:54:06;;;;;;;9.77;8.75;;;;;;;;;;5034582;28;20037;-62
2022/08/14 02:56:32;;;;;;;9.48;8.52;;;;;;;;;;5033025;28;20541;-62
2022/08/14 02:59:00;;;;;;;9.57;8.57;;;;;;;;;;5034159;28;20038;-62
2022/08/14 03:01:26;;;;;;;9.00;7.70;;;;;;;;;;5032946;28;20021;-63
2022/08/14 03:03:52;;;;;;;7.88;7.18;;;;;;;;;;5032895;28;20025;-62
2022/08/14 03:06:24;;;;;;;8.00;7.30;;;;;;;;;;5034099;28;20428;-63
2022/08/14 03:08:50;;;;;;;7.88;7.18;;;;;;;;;;5034022;28;20063;-63
2022/08/14 03:11:15;;;;;;;8.02;7.22;;;;;;;;;;5034327;28;20060;-63
2022/08/14 03:13:50;;;;;;;8.05;7.28;;;;;;;;;;5034544;28;20116;-63
2022/08/14 03:16:18;;;;;;;7.78;6.90;;;;;;;;;;5033920;28;20033;-62
2022/08/14 03:18:44;;;;;;;8.10;6.80;;;;;;;;;;5034130;28;20030;-63
2022/08/14 03:21:12;;;;;;;8.60;7.13;;;;;;;;;;5034392;28;20033;-62
2022/08/14 03:23:42;;;;;;;8.38;7.22;;;;;;;;;;5034126;28;20075;-62
2022/08/14 03:26:08;;;;;;;10.35;7.85;;;;;;;;;;5034075;28;20491;-62
2022/08/14 03:28:34;;;;;;;7.53;6.75;;;;;;;;;;5033389;28;20492;-63
2022/08/14 03:30:59;;;;;;;8.45;7.25;;;;;;;;;;5033772;28;20033;-63
2022/08/14 03:33:26;;;;;;;7.80;7.10;;;;;;;;;;5033769;28;20462;-63
2022/08/14 03:35:52;;;;;;;7.85;7.03;;;;;;;;;;5033895;28;20038;-63
2022/08/14 03:38:17;;;;;;;8.23;7.30;;;;;;;;;;5032404;28;20025;-63
2022/08/14 03:40:43;;;;;;;8.13;7.45;;;;;;;;;;5032395;28;20095;-63
2022/08/14 03:43:09;;;;;;;8.00;7.20;;;;;;;;;;5034188;28;20373;-63
2022/08/14 03:45:37;;;;;;;8.02;7.20;;;;;;;;;;5033898;28;20136;-63
2022/08/14 03:48:18;;;;;;;8.00;7.30;;;;;;;;;;5034121;28;20028;-63
2022/08/14 03:50:48;;;;;;;9.43;8.45;;;;;;;;;;5033773;28;20037;-62
2022/08/14 03:53:14;;;;;;;8.90;8.00;;;;;;;;;;5033811;28;20045;-63
2022/08/14 03:55:40;;;;;;;8.95;8.13;;;;;;;;;;5033424;28;20036;-63
2022/08/14 03:58:06;;;;;;;9.23;7.85;;;;;;;;;;5033930;28;20021;-63
2022/08/14 04:00:31;;;;;;;8.93;8.02;;;;;;;;;;5033369;28;20053;-63
2022/08/14 04:02:57;;;;;;;11.32;9.18;;;;;;;;;;5033658;28;20029;-62
2022/08/14 04:05:23;;;;;;;9.60;8.75;;;;;;;;;;5033657;28;20424;-63
2022/08/14 04:07:49;;;;;;;10.23;9.20;;;;;;;;;;5032470;28;20022;-63
2022/08/14 04:10:16;;;;;;;10.10;9.10;;;;;;;;;;5033366;28;20048;-63
2022/08/14 04:12:41;;;;;;;9.63;8.73;;;;;;;;;;5033642;28;20021;-63
2022/08/14 04:15:07;;;;;;;9.70;8.70;;;;;;;;;;5033573;28;20045;-63
2022/08/14 04:17:33;;;;;;;9.48;8.57;;;;;;;;;;5033179;28;20021;-63
2022/08/14 04:20:02;;;;;;;12.10;10.40;;;;;;;;;;5033251;28;20029;-63
2022/08/14 04:22:29;;;;;;;11.48;9.88;;;;;;;;;;5033280;28;20028;-63
2022/08/14 04:24:54;;;;;;;11.48;10.07;;;;;;;;;;5033140;28;20029;-63
2022/08/14 04:27:20;;;;;;;11.55;10.35;;;;;;;;;;5033229;28;20036;-63
2022/08/14 04:29:46;;;;;;;11.07;9.90;;;;;;;;;;5033163;28;20060;-63
2022/08/14 04:32:11;;;;;;;11.32;10.13;;;;;;;;;;5033437;28;20101;-63
2022/08/14 04:34:40;;;;;;;11.80;10.40;;;;;;;;;;5033113;28;20048;-63
2022/08/14 04:45:20;;;;;;;11.38;9.07;;;;;;;;;;5036738;28;20061;-63
2022/08/14 04:50:30;;;;;;;9.57;8.30;;;;;;;;;;5036616;28;20057;-62
2022/08/14 04:52:55;;;;;;;8.93;7.10;;;;;;;;;;5036393;28;20072;-63
2022/08/14 04:55:21;;;;;;;8.68;6.90;;;;;;;;;;5036603;28;20036;-62
2022/08/14 04:57:47;;;;;;;7.45;6.82;;;;;;;;;;5036722;28;20107;-62
2022/08/14 05:00:13;;;;;;;7.50;6.78;;;;;;;;;;5036783;28;20057;-62
2022/08/14 05:02:39;;;;;;;8.52;6.30;;;;;;;;;;5037023;28;20025;-62
2022/08/14 05:05:04;;;;;;;6.47;5.97;;;;;;;;;;5036500;28;20455;-63
2022/08/14 05:07:30;;;;;;;5.40;5.00;;;;;;;;;;5035429;28;20013;-62
2022/08/14 05:09:55;;;;;;;4.68;4.38;;;;;;;;;;5035014;28;20021;-62
2022/08/14 05:12:21;;;;;;;5.30;4.90;;;;;;;;;;5036281;28;20132;-63
2022/08/14 05:14:47;;;;;;;4.50;4.00;;;;;;;;;;5036764;28;20036;-62
2022/08/14 05:17:12;;;;;;;3.63;3.42;;;;;;;;;;5036014;28;20014;-63
2022/08/14 05:19:38;;;;;;;3.53;3.22;;;;;;;;;;5036350;28;20040;-62
2022/08/14 05:22:03;;;;;;;2.90;2.78;;;;;;;;;;5036097;28;20454;-62
2022/08/14 05:24:28;;;;;;;3.20;3.00;;;;;;;;;;5034764;28;20033;-63
2022/08/14 05:26:54;;;;;;;3.13;2.85;;;;;;;;;;5035974;28;20382;-62
2022/08/14 05:29:20;;;;;;;3.65;3.45;;;;;;;;;;5036219;28;20120;-62
2022/08/14 05:31:45;;;;;;;5.05;4.53;;;;;;;;;;5036195;28;20075;-62
2022/08/14 05:34:11;;;;;;;4.97;4.47;;;;;;;;;;5035904;28;20021;-63
2022/08/14 05:36:36;;;;;;;5.38;4.88;;;;;;;;;;5035251;28;20091;-62
2022/08/14 05:39:02;;;;;;;7.00;6.40;;;;;;;;;;5035660;28;20026;-62
2022/08/14 05:41:28;;;;;;;6.43;5.88;;;;;;;;;;5036045;28;20093;-62
2022/08/14 05:43:53;;;;;;;6.95;6.25;;;;;;;;;;5036195;28;20053;-62
2022/08/14 05:46:22;;;;;;;8.20;7.35;;;;;;;;;;5034731;28;20076;-63
2022/08/14 05:48:48;;;;;;;9.52;8.55;;;;;;;;;;5035849;28;20025;-62
2022/08/14 05:51:13;;;;;;;8.45;7.43;;;;;;;;;;5035296;28;20486;-63
2022/08/14 05:53:39;;;;;;;9.43;8.38;;;;;;;;;;5035457;28;20029;-62
2022/08/14 05:56:05;;;;;;;11.00;9.90;;;;;;;;;;5034190;28;20083;-62
2022/08/14 05:58:30;;;;;;;10.80;8.88;;;;;;;;;;5034037;28;20036;-62
2022/08/14 06:00:56;;;;;;;9.50;8.55;;;;;;;;;;5035625;28;20025;-62
2022/08/14 06:03:22;;;;;;;10.85;8.90;;;;;;;;;;5035349;28;20408;-62
2022/08/14 06:05:49;;;;;;;10.38;8.63;;;;;;;;;;5035576;28;20017;-62
2022/08/14 06:08:19;;;;;;;8.38;7.55;;;;;;;;;;5035779;28;20473;-62
2022/08/14 06:10:44;;;;;;;9.20;7.90;;;;;;;;;;5035771;28;20036;-62
2022/08/14 06:13:10;;;;;;;10.65;8.70;;;;;;;;;;5035422;28;20025;-62
2022/08/14 06:15:35;;;;;;;8.57;7.78;;;;;;;;;;5035619;28;20061;-63
2022/08/14 06:18:01;;;;;;;8.00;7.28;;;;;;;;;;5035012;28;20072;-62
2022/08/14 06:20:27;;;;;;;7.90;7.13;;;;;;;;;;5035254;28;20025;-63
2022/08/14 06:22:52;;;;;;;7.18;6.32;;;;;;;;;;5017234;28;20014;-62
2022/08/14 06:25:18;;;;;;;6.78;6.20;;;;;;;;;;5034858;28;20034;-62
2022/08/14 06:27:47;;;;;;;6.25;5.75;;;;;;;;;;5035166;28;20025;-62
2022/08/14 06:30:14;;;;;;;5.40;4.82;;;;;;;;;;5035109;28;20044;-62
2022/08/14 06:32:40;;;;;;;5.18;4.78;;;;;;;;;;5035242;28;20022;-63
2022/08/14 06:35:06;;;;;;;4.75;4.45;;;;;;;;;;5034713;28;20029;-63
2022/08/14 06:37:58;;;;;;;3.88;3.67;;;;;;;;;;5034856;28;20053;-62
2022/08/14 06:40:27;;;;;;;3.42;3.22;;;;;;;;;;5031934;28;20037;-62
2022/08/14 06:42:53;;;;;;;4.00;3.70;;;;;;;;;;5033700;28;20021;-62
2022/08/14 06:45:18;;;;;;;3.35;2.50;;;;;;;;;;5034498;28;20040;-62
2022/08/14 06:47:45;;;;;;;2.80;2.70;;;;;;;;;;5034111;28;20096;-62
2022/08/14 06:50:12;;;;;;;2.22;2.13;;;;;;;;;;5034701;28;20029;-62
2022/08/14 06:52:38;;;;;;;2.20;2.00;;;;;;;;;;5032893;28;20092;-62
2022/08/14 06:55:08;;;;;;;1.88;1.77;;;;;;;;;;5034884;28;20057;-63
2022/08/14 06:57:36;;;;;;;1.10;1.10;;;;;;;;;;5034519;28;20072;-62
2022/08/14 07:00:02;;;;;;;1.33;1.33;;;;;;;;;;5033786;28;20044;-62
2022/08/14 07:07:56;;;;;;;3.20;1.23;;;;;;;;;;5034361;28;20035;-62
2022/08/14 07:10:22;;;;;;;1.52;1.42;;;;;;;;;;5034096;28;20384;-62
2022/08/14 07:12:47;;;;;;;1.52;1.42;;;;;;;;;;5034270;28;20116;-62
2022/08/14 07:15:13;;;;;;;1.38;1.27;;;;;;;;;;5034321;28;20032;-63
2022/08/14 07:17:45;;;;;;;1.20;1.20;;;;;;;;;;5033827;28;20474;-63
2022/08/14 07:20:10;;;;;;;1.42;1.33;;;;;;;;;;5034158;28;20071;-63
2022/08/14 07:22:36;;;;;;;1.90;1.67;;;;;;;;;;5033038;28;20485;-62
2022/08/14 07:25:01;;;;;;;1.90;1.80;;;;;;;;;;5033819;28;20091;-62
2022/08/14 07:27:26;;;;;;;4.15;3.85;;;;;;;;;;5033869;28;20480;-62
2022/08/14 07:29:52;;;;;;;2.00;1.90;;;;;;;;;;5032534;28;20466;-63
2022/08/14 07:32:17;;;;;;;2.10;2.00;;;;;;;;;;5016064;28;20064;-62
2022/08/14 07:34:44;;;;;;;2.83;2.63;;;;;;;;;;5033693;28;20041;-62
2022/08/14 07:37:09;;;;;;;2.08;1.98;;;;;;;;;;5033953;28;20022;-63
2022/08/14 07:39:35;;;;;;;2.58;2.47;;;;;;;;;;5032286;28;20060;-63
2022/08/14 07:42:00;;;;;;;3.50;3.30;;;;;;;;;;5033887;28;20057;-63
2022/08/14 07:44:26;;;;;;;4.43;4.22;;;;;;;;;;5034154;28;20063;-63
2022/08/14 07:46:51;;;;;;;4.95;4.50;;;;;;;;;;5033887;28;20013;-62
2022/08/14 07:49:18;;;;;;;5.68;5.28;;;;;;;;;;5033508;28;20490;-62
2022/08/14 07:51:43;;;;;;;5.32;4.93;;;;;;;;;;5032584;28;20056;-63
2022/08/14 07:54:08;;;;;;;6.00;5.50;;;;;;;;;;5033831;28;20033;-62
2022/08/14 07:56:35;;;;;;;6.20;5.50;;;;;;;;;;5033827;28;20025;-62
2022/08/14 07:59:00;;;;;;;5.97;5.45;;;;;;;;;;5032287;28;20041;-63
2022/08/14 08:01:27;;;;;;;6.55;5.90;;;;;;;;;;5034040;28;20029;-62
2022/08/14 08:03:55;;;;;;;5.82;5.43;;;;;;;;;;5033413;28;20117;-62
2022/08/14 08:06:21;;;;;;;6.15;5.65;;;;;;;;;;5032146;28;20018;-62
2022/08/14 08:08:48;;;;;;;6.78;6.18;;;;;;;;;;5033676;28;20038;-63
2022/08/14 08:11:14;;;;;;;6.80;6.05;;;;;;;;;;5033379;28;20021;-63
2022/08/14 08:13:40;;;;;;;6.20;5.70;;;;;;;;;;5034965;28;20052;-62
2022/08/14 08:16:07;;;;;;;6.65;6.07;;;;;;;;;;5037623;28;20022;-62
2022/08/14 08:18:32;;;;;;;7.50;6.15;;;;;;;;;;5037479;28;20446;-63
2022/08/14 08:20:58;;;;;;;6.93;6.30;;;;;;;;;;5069456;28;20053;-63
2022/08/14 08:23:25;;;;;;;6.95;6.35;;;;;;;;;;5037469;28;20466;-63
2022/08/14 08:25:51;;;;;;;7.10;6.50;;;;;;;;;;5037161;28;20100;-63
2022/08/14 08:28:19;;;;;;;6.07;5.57;;;;;;;;;;5037082;28;20061;-62
2022/08/14 08:30:49;;;;;;;5.72;5.00;;;;;;;;;;5037341;28;20025;-62
2022/08/14 08:33:15;;;;;;;5.63;5.22;;;;;;;;;;5037316;28;20036;-63
2022/08/14 08:35:41;;;;;;;4.63;4.32;;;;;;;;;;5036978;28;20462;-62
2022/08/14 08:38:12;;;;;;;5.55;5.05;;;;;;;;;;5035567;28;20441;-62
2022/08/14 08:40:40;;;;;;;4.57;4.28;;;;;;;;;;5036915;28;20025;-62
2022/08/14 08:43:16;;;;;;;4.88;4.57;;;;;;;;;;5036860;28;20028;-62
2022/08/14 08:45:42;;;;;;;4.60;4.28;;;;;;;;;;5037253;28;20079;-62
2022/08/14 08:48:07;;;;;;;6.10;4.30;;;;;;;;;;5037013;28;20025;-62
2022/08/14 08:50:34;;;;;;;5.50;5.10;;;;;;;;;;5037753;28;20454;-62
2022/08/14 08:53:00;;;;;;;5.30;4.35;;;;;;;;;;5036517;28;20041;-62
2022/08/14 08:55:26;;;;;;;5.40;4.70;;;;;;;;;;5036628;28;20031;-63
2022/08/14 08:57:55;;;;;;;5.07;4.68;;;;;;;;;;5036526;28;20444;-62
2022/08/14 09:00:20;;;;;;;5.28;4.88;;;;;;;;;;5036829;28;20034;-62
2022/08/14 09:02:56;;;;;;;5.35;4.90;;;;;;;;;;5036421;28;20575;-62
2022/08/14 09:05:23;;;;;;;5.40;4.90;;;;;;;;;;5036410;28;20025;-62
2022/08/14 09:07:48;;;;;;;6.00;5.00;;;;;;;;;;5036967;28;20385;-63
2022/08/14 09:10:13;;;;;;;4.90;4.57;;;;;;;;;;5035198;28;20108;-62
2022/08/14 09:12:39;;;;;;;4.22;3.92;;;;;;;;;;5036276;28;20075;-62
2022/08/14 09:15:05;;;;;;;5.18;4.75;;;;;;;;;;5036224;28;20492;-62
2022/08/14 09:17:31;;;;;;;5.60;5.10;;;;;;;;;;5036679;28;20028;-63
2022/08/14 09:19:57;;;;;;;4.72;4.43;;;;;;;;;;5036116;28;20029;-62
2022/08/14 09:22:22;;;;;;;4.68;4.30;;;;;;;;;;5036520;28;20026;-62
2022/08/14 09:24:48;;;;;;;5.05;4.70;;;;;;;;;;5034091;28;20025;-63
2022/08/14 09:27:13;;;;;;;6.25;5.82;;;;;;;;;;5034760;28;20021;-62
2022/08/14 09:29:40;;;;;;;4.63;4.32;;;;;;;;;;5035374;28;20061;-62
2022/08/14 09:32:06;;;;;;;25.35;18.88;;;;;;;;;;5035930;28;20070;-62
2022/08/14 09:34:45;;;;;;;6.50;5.70;;;;;;;;;;5035911;28;20100;-62
2022/08/14 09:37:14;;;;;;;16.75;7.55;;;;;;;;;;5036376;28;20037;-62
2022/08/14 09:39:58;;;;;;;43.50;26.20;;;;;;;;;;5035956;28;20112;-62
2022/08/14 09:42:42;;;;;;;16.50;9.30;;;;;;;;;;5034526;28;20068;-62
2022/08/14 09:45:14;;;;;;;6.18;5.20;;;;;;;;;;5036296;28;20112;-62
2022/08/14 09:47:50;;;;;;;5.18;4.43;;;;;;;;;;5036251;28;20021;-62
2022/08/14 09:50:23;;;;;;;8.40;6.63;;;;;;;;;;5035663;28;20026;-63
2022/08/14 09:52:51;;;;;;;7.60;5.32;;;;;;;;;;5035414;28;20045;-62
2022/08/14 09:55:20;;;;;;;4.97;4.57;;;;;;;;;;5036110;28;20025;-62
2022/08/14 09:57:46;;;;;;;4.22;3.92;;;;;;;;;;5034149;28;20030;-63
2022/08/14 10:00:18;;;;;;;4.25;3.92;;;;;;;;;;5035707;28;20021;-63
2022/08/14 10:03:09;;;;;;;4.18;3.90;;;;;;;;;;5035610;28;20161;-63
2022/08/14 10:05:35;;;;;;;4.38;4.05;;;;;;;;;;5030223;28;20042;-62
2022/08/14 10:08:01;;;;;;;4.00;3.80;;;;;;;;;;5035564;28;20025;-63
2022/08/14 10:10:27;;;;;;;4.15;3.67;;;;;;;;;;5035747;28;20034;-63
2022/08/14 10:12:54;;;;;;;4.40;3.65;;;;;;;;;;5034184;28;20112;-62
2022/08/14 10:15:21;;;;;;;2.85;2.75;;;;;;;;;;5035117;28;20086;-63
2022/08/14 10:17:47;;;;;;;3.28;3.08;;;;;;;;;;5035309;28;20035;-63
2022/08/14 10:20:14;;;;;;;6.22;5.78;;;;;;;;;;5035037;28;20026;-63
2022/08/14 10:22:40;;;;;;;3.53;3.33;;;;;;;;;;5035034;28;20516;-63
2022/08/14 10:25:16;;;;;;;3.45;3.25;;;;;;;;;;5034910;28;20030;-63
2022/08/14 10:27:45;;;;;;;3.85;3.45;;;;;;;;;;5035446;28;20056;-63
2022/08/14 10:30:14;;;;;;;3.70;3.50;;;;;;;;;;5034871;28;20362;-63
2022/08/14 10:32:45;;;;;;;3.40;3.20;;;;;;;;;;5034787;28;20026;-63
2022/08/14 10:35:11;;;;;;;8.07;6.90;;;;;;;;;;5035299;28;20033;-62
2022/08/14 10:37:41;;;;;;;90.43;27.98;;;;;;;;;;5033901;28;20022;-63
2022/08/14 10:40:07;;;;;;;43.15;15.85;;;;;;;;;;5033361;28;20029;-62
2022/08/14 10:42:39;;;;;;;15.50;7.65;;;;;;;;;;5033728;28;20096;-63
2022/08/14 10:45:19;;;;;;;3.42;3.13;;;;;;;;;;5033680;28;20450;-63
2022/08/14 10:47:44;;;;;;;3.20;2.90;;;;;;;;;;5034513;28;20057;-63
2022/08/14 10:50:10;;;;;;;3.85;3.42;;;;;;;;;;5034709;28;20056;-63
2022/08/14 10:52:37;;;;;;;9.48;5.60;;;;;;;;;;5034257;28;20099;-63
2022/08/14 10:55:07;;;;;;;11.35;5.65;;;;;;;;;;5034923;28;20075;-63
2022/08/14 10:57:34;;;;;;;4.72;3.75;;;;;;;;;;5032989;28;20026;-63
2022/08/14 11:00:12;;;;;;;41.67;13.38;;;;;;;;;;5033133;28;20462;-63
2022/08/14 11:02:38;;;;;;;17.10;7.82;;;;;;;;;;5034197;28;20533;-63
2022/08/14 11:05:03;;;;;;;5.05;4.55;;;;;;;;;;5034225;28;20104;-62
2022/08/14 11:07:29;;;;;;;4.72;4.00;;;;;;;;;;5034412;28;20132;-63
2022/08/14 11:09:56;;;;;;;7.47;4.22;;;;;;;;;;5034445;28;20057;-63
2022/08/14 11:12:22;;;;;;;3.45;3.15;;;;;;;;;;5033480;28;20034;-63
2022/08/14 11:14:55;;;;;;;2.95;2.75;;;;;;;;;;5034037;28;20067;-63
2022/08/14 11:17:20;;;;;;;2.50;2.40;;;;;;;;;;5034272;28;20026;-63
2022/08/14 11:19:46;;;;;;;32.67;11.80;;;;;;;;;;5032650;28;20071;-63
2022/08/14 11:22:14;;;;;;;3.20;3.00;;;;;;;;;;5033901;28;20504;-63
2022/08/14 11:24:41;;;;;;;4.22;3.92;;;;;;;;;;5034135;28;20014;-63
2022/08/14 11:27:07;;;;;;;3.80;3.50;;;;;;;;;;5034159;28;20029;-63
2022/08/14 11:29:34;;;;;;;3.45;2.65;;;;;;;;;;5033796;28;20036;-63
2022/08/14 11:31:59;;;;;;;2.80;2.60;;;;;;;;;;5034321;28;20084;-63
2022/08/14 11:34:25;;;;;;;2.63;2.53;;;;;;;;;;5034048;28;20025;-63
2022/08/14 11:36:50;;;;;;;2.50;2.40;;;;;;;;;;5032676;28;20104;-63
2022/08/14 11:39:20;;;;;;;2.30;2.20;;;;;;;;;;5033892;28;20087;-63
2022/08/14 11:41:45;;;;;;;2.80;2.45;;;;;;;;;;5033951;28;20032;-63
2022/08/14 11:44:10;;;;;;;3.05;2.80;;;;;;;;;;5033676;28;20021;-62
2022/08/14 11:46:36;;;;;;;12.43;9.32;;;;;;;;;;5032344;28;20021;-63
2022/08/14 11:49:01;;;;;;;3.30;3.10;;;;;;;;;;5033768;28;20053;-63
2022/08/14 11:51:27;;;;;;;3.10;2.90;;;;;;;;;;5033674;28;20053;-63
2022/08/14 11:53:53;;;;;;;6.22;5.57;;;;;;;;;;5032316;28;20033;-63
2022/08/14 11:56:19;;;;;;;6.30;5.70;;;;;;;;;;5034031;28;20029;-63
2022/08/14 11:58:48;;;;;;;3.95;3.70;;;;;;;;;;5033443;28;20358;-63
2022/08/14 12:01:14;;;;;;;5.30;4.55;;;;;;;;;;5032630;28;20033;-63
2022/08/14 12:03:40;;;;;;;9.25;6.38;;;;;;;;;;5034018;28;20022;-63
2022/08/14 12:06:07;;;;;;;5.07;4.68;;;;;;;;;;5033442;28;20032;-63
2022/08/14 12:08:34;;;;;;;8.10;5.53;;;;;;;;;;5033407;28;20472;-63
2022/08/14 12:10:59;;;;;;;12.77;8.13;;;;;;;;;;5033318;28;20030;-63
2022/08/14 12:13:27;;;;;;;4.80;4.40;;;;;;;;;;5033401;28;20445;-63
2022/08/14 12:15:57;;;;;;;28.83;12.35;;;;;;;;;;5033317;28;20036;-63
2022/08/14 12:18:33;;;;;;;5.55;5.05;;;;;;;;;;5033570;28;20029;-63
2022/08/14 12:21:09;;;;;;;5.47;4.97;;;;;;;;;;5033821;28;20045;-63
2022/08/14 12:23:35;;;;;;;4.90;4.50;;;;;;;;;;5033259;28;20029;-63
2022/08/14 12:26:01;;;;;;;6.72;5.72;;;;;;;;;;5033547;28;20047;-62
2022/08/14 12:28:27;;;;;;;7.22;5.70;;;;;;;;;;5033183;28;20038;-63
2022/08/14 12:30:52;;;;;;;28.50;13.30;;;;;;;;;;5031964;28;20396;-62
2022/08/14 12:33:24;;;;;;;7.93;6.47;;;;;;;;;;5033413;28;20022;-63
2022/08/14 12:35:51;;;;;;;19.88;9.95;;;;;;;;;;5033117;28;20100;-63
2022/08/14 12:38:17;;;;;;;4.65;4.35;;;;;;;;;;5033344;28;20029;-62
2022/08/14 12:40:49;;;;;;;7.75;6.20;;;;;;;;;;5033349;28;20025;-63
2022/08/14 12:43:17;;;;;;;5.68;5.13;;;;;;;;;;5033069;28;20033;-63
2022/08/14 12:45:48;;;;;;;5.93;5.32;;;;;;;;;;5033595;28;20396;-63
2022/08/14 12:48:13;;;;;;;5.97;5.07;;;;;;;;;;5032995;28;20029;-63
2022/08/14 12:50:40;;;;;;;7.88;5.95;;;;;;;;;;5033329;28;20024;-62
2022/08/14 12:53:06;;;;;;;5.28;4.88;;;;;;;;;;5031556;28;20138;-63
2022/08/14 12:55:34;;;;;;;16.63;14.90;;;;;;;;;;5032087;28;20056;-63
2022/08/14 12:58:06;;;;;;;5.25;4.95;;;;;;;;;;5032911;28;20030;-63
2022/08/14 13:00:33;;;;;;;5.47;5.07;;;;;;;;;;5034698;28;20053;-63
2022/08/14 13:03:00;;;;;;;7.55;6.57;;;;;;;;;;5036526;28;20017;-63
2022/08/14 13:05:28;;;;;;;10.82;8.45;;;;;;;;;;5036432;28;20021;-63
2022/08/14 13:07:56;;;;;;;6.93;6.28;;;;;;;;;;5036692;28;20373;-63
2022/08/14 13:10:22;;;;;;;7.55;6.25;;;;;;;;;;5036600;28;20025;-63
2022/08/14 13:12:48;;;;;;;7.75;6.00;;;;;;;;;;5036332;28;20592;-63
2022/08/14 13:15:14;;;;;;;5.90;5.40;;;;;;;;;;5036561;28;20032;-63
2022/08/14 13:17:47;;;;;;;3.72;3.42;;;;;;;;;;5036500;28;20047;-63
2022/08/14 13:20:15;;;;;;;4.78;3.80;;;;;;;;;;5036205;28;20030;-63
2022/08/14 13:22:43;;;;;;;3.70;3.30;;;;;;;;;;5036114;28;20021;-63
2022/08/14 13:25:14;;;;;;;4.07;3.78;;;;;;;;;;5034802;28;20461;-63
2022/08/14 13:27:42;;;;;;;3.83;3.53;;;;;;;;;;5036874;28;20346;-63
2022/08/14 13:30:09;;;;;;;4.45;4.15;;;;;;;;;;5018319;28;20032;-63
2022/08/14 13:32:38;;;;;;;5.75;5.20;;;;;;;;;;5036294;28;20060;-63
2022/08/14 13:35:04;;;;;;;5.93;5.15;;;;;;;;;;5036348;28;20013;-63
2022/08/14 13:37:30;;;;;;;6.55;5.90;;;;;;;;;;5036370;28;20100;-63
2022/08/14 13:39:55;;;;;;;7.90;6.07;;;;;;;;;;5035798;28;20025;-63
2022/08/14 13:42:21;;;;;;;7.10;5.88;;;;;;;;;;5035841;28;20492;-63
2022/08/14 13:44:49;;;;;;;5.90;5.40;;;;;;;;;;5035650;28;20026;-63
2022/08/14 13:47:15;;;;;;;5.55;5.10;;;;;;;;;;5035816;28;20095;-63
2022/08/14 13:49:40;;;;;;;5.70;5.30;;;;;;;;;;5035804;28;20025;-63
2022/08/14 13:52:09;;;;;;;6.47;5.97;;;;;;;;;;5035621;28;20077;-63
2022/08/14 13:54:35;;;;;;;5.75;5.35;;;;;;;;;;5034309;28;20036;-63
2022/08/14 13:57:02;;;;;;;5.57;5.10;;;;;;;;;;5035558;28;20432;-63
2022/08/14 13:59:28;;;;;;;6.10;5.60;;;;;;;;;;5035406;28;20466;-63
2022/08/14 14:01:55;;;;;;;5.60;5.20;;;;;;;;;;5034558;28;20101;-63
2022/08/14 14:04:22;;;;;;;6.20;5.60;;;;;;;;;;5035610;28;20424;-63
2022/08/14 14:06:48;;;;;;;6.00;5.53;;;;;;;;;;5035358;28;20021;-63
2022/08/14 14:09:14;;;;;;;5.95;5.45;;;;;;;;;;5035553;28;20108;-63
2022/08/14 14:11:41;;;;;;;5.95;5.40;;;;;;;;;;5035557;28;20060;-63
2022/08/14 14:14:08;;;;;;;5.95;5.45;;;;;;;;;;5035183;28;20061;-63
2022/08/14 14:16:35;;;;;;;5.30;4.90;;;;;;;;;;5035442;28;20417;-63
2022/08/14 14:19:02;;;;;;;5.68;5.18;;;;;;;;;;5035283;28;20030;-63
2022/08/14 14:21:30;;;;;;;4.70;4.30;;;;;;;;;;5035062;28;20171;-63
2022/08/14 14:23:56;;;;;;;4.80;4.50;;;;;;;;;;5035321;28;20098;-63
2022/08/14 14:26:22;;;;;;;4.20;3.92;;;;;;;;;;5035237;28;20501;-63
2022/08/14 14:28:52;;;;;;;5.57;4.28;;;;;;;;;;5033748;28;20029;-63
2022/08/14 14:31:22;;;;;;;4.55;4.15;;;;;;;;;;5035399;28;20026;-63
2022/08/14 14:33:49;;;;;;;4.43;4.22;;;;;;;;;;5033919;28;20037;-63
2022/08/14 14:36:25;;;;;;;4.97;4.57;;;;;;;;;;5033607;28;20083;-63
2022/08/14 14:38:51;;;;;;;6.75;6.15;;;;;;;;;;5034885;28;20025;-63
2022/08/14 14:41:19;;;;;;;5.95;5.35;;;;;;;;;;5034937;28;20071;-63
2022/08/14 14:43:47;;;;;;;5.55;5.15;;;;;;;;;;5066654;28;20037;-63
2022/08/14 14:46:15;;;;;;;5.97;5.50;;;;;;;;;;5035130;28;20057;-63
2022/08/14 14:48:43;;;;;;;5.13;4.80;;;;;;;;;;5034749;28;20386;-63
2022/08/14 14:51:09;;;;;;;6.53;5.65;;;;;;;;;;5034465;28;20041;-62
2022/08/14 14:53:35;;;;;;;6.95;5.50;;;;;;;;;;5033145;28;20033;-63
2022/08/14 14:56:01;;;;;;;7.43;6.18;;;;;;;;;;5034684;28;20114;-63
2022/08/14 14:58:28;;;;;;;6.47;5.85;;;;;;;;;;5034267;28;20053;-63
2022/08/14 15:00:55;;;;;;;6.47;5.90;;;;;;;;;;5034568;28;20469;-63
2022/08/14 15:03:20;;;;;;;7.30;6.30;;;;;;;;;;5034252;28;20367;-63